sensor_id;sensor_type;location;lat;lon;timestamp;P1;durP1;ratioP1;P2;durP2;ratioP2
39300;SDS011;25019;42.626;23.380;2022-10-22T00:00:10;14.43;;;10.63;;
39300;SDS011;25019;42.626;23.380;2022-10-22T00:02:37;19.93;;;14.33;;
39300;SDS011;25019;42.626;23.380;2022-10-22T00:05:03;16.83;;;11.53;;
39300;SDS011;25019;42.626;23.380;2022-10-22T00:07:29;29.47;;;19.13;;
39300;SDS011;25019;42.626;23.380;2022-10-22T00:09:55;20.47;;;13.77;;
39300;SDS011;25019;42.626;23.380;2022-10-22T00:12:21;17.57;;;11.40;;
39300;SDS011;25019;42.626;23.380;2022-10-22T00:14:47;15.83;;;9.77;;
39300;SDS011;25019;42.626;23.380;2022-10-22T00:17:13;16.70;;;11.70;;
39300;SDS011;25019;42.626;23.380;2022-10-22T00:19:38;11.80;;;9.30;;
39300;SDS011;25019;42.626;23.380;2022-10-22T00:22:04;17.60;;;11.43;;
39300;SDS011;25019;42.626;23.380;2022-10-22T00:24:31;14.20;;;10.07;;
39300;SDS011;25019;42.626;23.380;2022-10-22T00:26:58;20.73;;;12.77;;
39300;SDS011;25019;42.626;23.380;2022-10-22T00:29:23;14.43;;;11.30;;
39300;SDS011;25019;42.626;23.380;2022-10-22T00:31:49;16.97;;;10.60;;
39300;SDS011;25019;42.626;23.380;2022-10-22T00:34:19;14.50;;;10.03;;
39300;SDS011;25019;42.626;23.380;2022-10-22T00:36:49;14.93;;;10.30;;
39300;SDS011;25019;42.626;23.380;2022-10-22T00:39:16;13.97;;;10.03;;
39300;SDS011;25019;42.626;23.380;2022-10-22T00:41:44;11.87;;;8.63;;
39300;SDS011;25019;42.626;23.380;2022-10-22T00:47:26;31.00;;;20.67;;
39300;SDS011;25019;42.626;23.380;2022-10-22T00:49:55;22.20;;;15.73;;
39300;SDS011;25019;42.626;23.380;2022-10-22T00:52:22;14.10;;;10.30;;
39300;SDS011;25019;42.626;23.380;2022-10-22T00:54:49;18.30;;;12.50;;
39300;SDS011;25019;42.626;23.380;2022-10-22T00:57:16;20.90;;;15.70;;
39300;SDS011;25019;42.626;23.380;2022-10-22T00:59:44;20.13;;;14.67;;
39300;SDS011;25019;42.626;23.380;2022-10-22T01:02:09;12.67;;;9.83;;
39300;SDS011;25019;42.626;23.380;2022-10-22T01:04:35;13.90;;;9.27;;
39300;SDS011;25019;42.626;23.380;2022-10-22T01:07:01;12.90;;;9.27;;
39300;SDS011;25019;42.626;23.380;2022-10-22T01:09:30;11.53;;;8.83;;
39300;SDS011;25019;42.626;23.380;2022-10-22T01:14:59;13.90;;;9.70;;
39300;SDS011;25019;42.626;23.380;2022-10-22T01:28:50;15.37;;;10.60;;
39300;SDS011;25019;42.626;23.380;2022-10-22T01:31:17;13.23;;;9.87;;
39300;SDS011;25019;42.626;23.380;2022-10-22T01:33:44;15.07;;;9.53;;
39300;SDS011;25019;42.626;23.380;2022-10-22T01:36:13;15.87;;;9.33;;
39300;SDS011;25019;42.626;23.380;2022-10-22T01:38:39;14.67;;;9.53;;
39300;SDS011;25019;42.626;23.380;2022-10-22T01:41:06;14.17;;;9.73;;
39300;SDS011;25019;42.626;23.380;2022-10-22T01:43:33;13.43;;;9.20;;
39300;SDS011;25019;42.626;23.380;2022-10-22T01:46:00;11.77;;;8.67;;
39300;SDS011;25019;42.626;23.380;2022-10-22T01:51:15;11.50;;;8.70;;
39300;SDS011;25019;42.626;23.380;2022-10-22T02:02:11;12.30;;;9.03;;
39300;SDS011;25019;42.626;23.380;2022-10-22T02:04:57;10.70;;;8.60;;
39300;SDS011;25019;42.626;23.380;2022-10-22T02:07:30;11.83;;;8.37;;
39300;SDS011;25019;42.626;23.380;2022-10-22T02:10:00;11.47;;;8.67;;
39300;SDS011;25019;42.626;23.380;2022-10-22T02:12:27;11.67;;;8.93;;
39300;SDS011;25019;42.626;23.380;2022-10-22T02:14:56;12.33;;;9.07;;
39300;SDS011;25019;42.626;23.380;2022-10-22T02:17:25;11.67;;;9.00;;
39300;SDS011;25019;42.626;23.380;2022-10-22T02:20:02;14.70;;;9.00;;
39300;SDS011;25019;42.626;23.380;2022-10-22T02:22:33;13.00;;;8.73;;
39300;SDS011;25019;42.626;23.380;2022-10-22T02:25:01;16.13;;;9.83;;
39300;SDS011;25019;42.626;23.380;2022-10-22T02:27:32;12.50;;;8.80;;
39300;SDS011;25019;42.626;23.380;2022-10-22T02:30:05;10.87;;;8.43;;
39300;SDS011;25019;42.626;23.380;2022-10-22T02:32:41;12.53;;;9.77;;
39300;SDS011;25019;42.626;23.380;2022-10-22T02:35:08;13.63;;;10.40;;
39300;SDS011;25019;42.626;23.380;2022-10-22T02:37:36;16.33;;;10.07;;
39300;SDS011;25019;42.626;23.380;2022-10-22T02:40:03;15.07;;;9.67;;
39300;SDS011;25019;42.626;23.380;2022-10-22T02:42:30;13.53;;;9.63;;
39300;SDS011;25019;42.626;23.380;2022-10-22T02:44:56;14.80;;;9.93;;
39300;SDS011;25019;42.626;23.380;2022-10-22T02:47:22;12.77;;;9.37;;
39300;SDS011;25019;42.626;23.380;2022-10-22T02:49:47;11.53;;;8.93;;
39300;SDS011;25019;42.626;23.380;2022-10-22T02:52:13;12.13;;;9.57;;
39300;SDS011;25019;42.626;23.380;2022-10-22T02:54:38;13.57;;;9.57;;
39300;SDS011;25019;42.626;23.380;2022-10-22T02:57:04;11.53;;;9.10;;
39300;SDS011;25019;42.626;23.380;2022-10-22T02:59:29;12.10;;;9.83;;
39300;SDS011;25019;42.626;23.380;2022-10-22T03:01:55;11.93;;;9.17;;
39300;SDS011;25019;42.626;23.380;2022-10-22T03:04:21;11.30;;;8.97;;
39300;SDS011;25019;42.626;23.380;2022-10-22T03:06:46;13.87;;;9.03;;
39300;SDS011;25019;42.626;23.380;2022-10-22T03:09:13;14.43;;;9.47;;
39300;SDS011;25019;42.626;23.380;2022-10-22T03:11:40;13.33;;;9.33;;
39300;SDS011;25019;42.626;23.380;2022-10-22T03:14:06;14.27;;;9.67;;
39300;SDS011;25019;42.626;23.380;2022-10-22T03:16:31;12.90;;;9.20;;
39300;SDS011;25019;42.626;23.380;2022-10-22T03:18:57;13.30;;;9.50;;
39300;SDS011;25019;42.626;23.380;2022-10-22T03:21:31;16.43;;;10.20;;
39300;SDS011;25019;42.626;23.380;2022-10-22T03:24:02;16.90;;;10.60;;
39300;SDS011;25019;42.626;23.380;2022-10-22T03:26:33;15.20;;;9.73;;
39300;SDS011;25019;42.626;23.380;2022-10-22T03:29:01;15.50;;;10.17;;
39300;SDS011;25019;42.626;23.380;2022-10-22T03:31:27;13.90;;;9.80;;
39300;SDS011;25019;42.626;23.380;2022-10-22T03:33:52;13.50;;;10.03;;
39300;SDS011;25019;42.626;23.380;2022-10-22T03:36:18;13.27;;;9.50;;
39300;SDS011;25019;42.626;23.380;2022-10-22T03:38:44;13.10;;;9.57;;
39300;SDS011;25019;42.626;23.380;2022-10-22T03:41:09;13.80;;;9.33;;
39300;SDS011;25019;42.626;23.380;2022-10-22T03:43:36;13.20;;;9.93;;
39300;SDS011;25019;42.626;23.380;2022-10-22T03:46:03;13.33;;;9.70;;
39300;SDS011;25019;42.626;23.380;2022-10-22T03:48:29;14.57;;;10.07;;
39300;SDS011;25019;42.626;23.380;2022-10-22T03:50:54;11.83;;;9.23;;
39300;SDS011;25019;42.626;23.380;2022-10-22T03:53:20;13.30;;;8.87;;
39300;SDS011;25019;42.626;23.380;2022-10-22T03:55:45;12.90;;;9.33;;
39300;SDS011;25019;42.626;23.380;2022-10-22T03:58:11;12.23;;;8.43;;
39300;SDS011;25019;42.626;23.380;2022-10-22T04:00:37;13.90;;;8.70;;
39300;SDS011;25019;42.626;23.380;2022-10-22T04:03:02;15.43;;;9.67;;
39300;SDS011;25019;42.626;23.380;2022-10-22T04:05:28;11.67;;;9.00;;
39300;SDS011;25019;42.626;23.380;2022-10-22T04:07:54;13.40;;;8.97;;
39300;SDS011;25019;42.626;23.380;2022-10-22T04:10:19;15.60;;;8.80;;
39300;SDS011;25019;42.626;23.380;2022-10-22T04:12:48;11.50;;;8.50;;
39300;SDS011;25019;42.626;23.380;2022-10-22T04:15:14;12.83;;;9.23;;
39300;SDS011;25019;42.626;23.380;2022-10-22T04:17:39;12.00;;;9.03;;
39300;SDS011;25019;42.626;23.380;2022-10-22T04:20:05;12.93;;;8.70;;
39300;SDS011;25019;42.626;23.380;2022-10-22T04:22:32;13.90;;;10.03;;
39300;SDS011;25019;42.626;23.380;2022-10-22T04:24:59;13.50;;;9.40;;
39300;SDS011;25019;42.626;23.380;2022-10-22T04:27:27;12.23;;;9.20;;
39300;SDS011;25019;42.626;23.380;2022-10-22T04:29:54;13.27;;;9.27;;
39300;SDS011;25019;42.626;23.380;2022-10-22T04:32:20;11.67;;;8.83;;
39300;SDS011;25019;42.626;23.380;2022-10-22T04:34:45;13.83;;;9.67;;
39300;SDS011;25019;42.626;23.380;2022-10-22T04:37:11;14.20;;;9.13;;
39300;SDS011;25019;42.626;23.380;2022-10-22T04:39:36;14.20;;;10.07;;
39300;SDS011;25019;42.626;23.380;2022-10-22T04:42:02;16.23;;;10.20;;
39300;SDS011;25019;42.626;23.380;2022-10-22T04:44:28;15.13;;;9.37;;
39300;SDS011;25019;42.626;23.380;2022-10-22T04:46:54;13.17;;;9.63;;
39300;SDS011;25019;42.626;23.380;2022-10-22T04:49:19;13.73;;;10.00;;
39300;SDS011;25019;42.626;23.380;2022-10-22T04:51:45;13.23;;;9.83;;
39300;SDS011;25019;42.626;23.380;2022-10-22T04:54:11;14.43;;;10.27;;
39300;SDS011;25019;42.626;23.380;2022-10-22T04:56:36;15.90;;;10.83;;
39300;SDS011;25019;42.626;23.380;2022-10-22T04:59:04;12.90;;;9.50;;
39300;SDS011;25019;42.626;23.380;2022-10-22T05:01:32;13.50;;;9.63;;
39300;SDS011;25019;42.626;23.380;2022-10-22T05:04:03;12.40;;;9.70;;
39300;SDS011;25019;42.626;23.380;2022-10-22T05:06:30;14.50;;;9.87;;
39300;SDS011;25019;42.626;23.380;2022-10-22T05:08:59;12.50;;;9.60;;
39300;SDS011;25019;42.626;23.380;2022-10-22T05:11:27;16.43;;;10.13;;
39300;SDS011;25019;42.626;23.380;2022-10-22T05:13:54;13.30;;;9.50;;
39300;SDS011;25019;42.626;23.380;2022-10-22T05:16:21;12.57;;;9.40;;
39300;SDS011;25019;42.626;23.380;2022-10-22T05:18:47;13.43;;;9.23;;
39300;SDS011;25019;42.626;23.380;2022-10-22T05:21:14;14.40;;;9.60;;
39300;SDS011;25019;42.626;23.380;2022-10-22T05:23:42;15.40;;;8.83;;
39300;SDS011;25019;42.626;23.380;2022-10-22T05:26:09;13.33;;;9.80;;
39300;SDS011;25019;42.626;23.380;2022-10-22T05:28:36;14.37;;;10.13;;
39300;SDS011;25019;42.626;23.380;2022-10-22T05:31:02;15.23;;;9.00;;
39300;SDS011;25019;42.626;23.380;2022-10-22T05:33:28;16.20;;;9.20;;
39300;SDS011;25019;42.626;23.380;2022-10-22T05:35:56;16.37;;;9.33;;
39300;SDS011;25019;42.626;23.380;2022-10-22T05:38:22;12.23;;;8.93;;
39300;SDS011;25019;42.626;23.380;2022-10-22T05:40:57;12.50;;;8.50;;
39300;SDS011;25019;42.626;23.380;2022-10-22T05:43:26;11.63;;;8.83;;
39300;SDS011;25019;42.626;23.380;2022-10-22T05:45:52;13.40;;;9.57;;
39300;SDS011;25019;42.626;23.380;2022-10-22T05:48:17;21.77;;;10.10;;
39300;SDS011;25019;42.626;23.380;2022-10-22T05:50:43;16.67;;;10.00;;
39300;SDS011;25019;42.626;23.380;2022-10-22T05:53:10;15.13;;;9.43;;
39300;SDS011;25019;42.626;23.380;2022-10-22T05:55:36;15.60;;;9.87;;
39300;SDS011;25019;42.626;23.380;2022-10-22T05:58:04;13.17;;;9.23;;
39300;SDS011;25019;42.626;23.380;2022-10-22T06:00:30;14.17;;;9.47;;
39300;SDS011;25019;42.626;23.380;2022-10-22T06:02:56;15.97;;;10.10;;
39300;SDS011;25019;42.626;23.380;2022-10-22T06:05:21;13.50;;;9.60;;
39300;SDS011;25019;42.626;23.380;2022-10-22T06:07:47;15.57;;;10.50;;
39300;SDS011;25019;42.626;23.380;2022-10-22T06:10:13;14.53;;;10.37;;
39300;SDS011;25019;42.626;23.380;2022-10-22T06:12:41;16.37;;;10.53;;
39300;SDS011;25019;42.626;23.380;2022-10-22T06:15:06;16.10;;;10.90;;
39300;SDS011;25019;42.626;23.380;2022-10-22T06:17:34;21.63;;;12.33;;
39300;SDS011;25019;42.626;23.380;2022-10-22T06:19:59;19.27;;;12.13;;
39300;SDS011;25019;42.626;23.380;2022-10-22T06:22:25;21.80;;;11.37;;
39300;SDS011;25019;42.626;23.380;2022-10-22T06:24:51;20.87;;;13.57;;
39300;SDS011;25019;42.626;23.380;2022-10-22T06:27:16;22.47;;;15.10;;
39300;SDS011;25019;42.626;23.380;2022-10-22T06:29:42;30.63;;;16.13;;
39300;SDS011;25019;42.626;23.380;2022-10-22T06:32:07;29.13;;;17.33;;
39300;SDS011;25019;42.626;23.380;2022-10-22T06:34:33;32.47;;;18.20;;
39300;SDS011;25019;42.626;23.380;2022-10-22T06:36:59;27.50;;;19.07;;
39300;SDS011;25019;42.626;23.380;2022-10-22T06:39:24;29.10;;;18.63;;
39300;SDS011;25019;42.626;23.380;2022-10-22T06:41:50;35.10;;;21.23;;
39300;SDS011;25019;42.626;23.380;2022-10-22T06:44:16;32.27;;;20.43;;
39300;SDS011;25019;42.626;23.380;2022-10-22T06:46:43;32.47;;;19.90;;
39300;SDS011;25019;42.626;23.380;2022-10-22T06:49:10;34.73;;;21.37;;
39300;SDS011;25019;42.626;23.380;2022-10-22T06:51:38;29.97;;;19.63;;
39300;SDS011;25019;42.626;23.380;2022-10-22T06:54:04;32.30;;;20.20;;
39300;SDS011;25019;42.626;23.380;2022-10-22T06:56:30;28.43;;;19.30;;
39300;SDS011;25019;42.626;23.380;2022-10-22T06:58:56;30.57;;;19.70;;
39300;SDS011;25019;42.626;23.380;2022-10-22T07:01:26;31.47;;;21.63;;
39300;SDS011;25019;42.626;23.380;2022-10-22T07:03:55;29.60;;;19.73;;
39300;SDS011;25019;42.626;23.380;2022-10-22T07:06:21;29.90;;;21.73;;
39300;SDS011;25019;42.626;23.380;2022-10-22T07:08:47;31.33;;;22.03;;
39300;SDS011;25019;42.626;23.380;2022-10-22T07:13:53;50.17;;;34.17;;
39300;SDS011;25019;42.626;23.380;2022-10-22T07:16:23;33.00;;;22.93;;
39300;SDS011;25019;42.626;23.380;2022-10-22T07:18:49;30.63;;;21.77;;
39300;SDS011;25019;42.626;23.380;2022-10-22T07:21:15;29.30;;;20.53;;
39300;SDS011;25019;42.626;23.380;2022-10-22T07:23:44;28.60;;;18.97;;
39300;SDS011;25019;42.626;23.380;2022-10-22T07:26:11;30.17;;;18.93;;
39300;SDS011;25019;42.626;23.380;2022-10-22T07:28:38;27.60;;;18.90;;
39300;SDS011;25019;42.626;23.380;2022-10-22T07:31:14;25.73;;;17.37;;
39300;SDS011;25019;42.626;23.380;2022-10-22T07:33:41;25.77;;;17.40;;
39300;SDS011;25019;42.626;23.380;2022-10-22T07:36:07;26.70;;;18.80;;
39300;SDS011;25019;42.626;23.380;2022-10-22T07:38:34;30.33;;;18.83;;
39300;SDS011;25019;42.626;23.380;2022-10-22T07:41:00;28.13;;;18.77;;
39300;SDS011;25019;42.626;23.380;2022-10-22T07:43:26;26.77;;;18.47;;
39300;SDS011;25019;42.626;23.380;2022-10-22T07:45:52;26.93;;;17.43;;
39300;SDS011;25019;42.626;23.380;2022-10-22T07:48:20;26.90;;;16.80;;
39300;SDS011;25019;42.626;23.380;2022-10-22T07:50:47;26.53;;;17.57;;
39300;SDS011;25019;42.626;23.380;2022-10-22T07:53:15;26.47;;;17.90;;
39300;SDS011;25019;42.626;23.380;2022-10-22T07:55:41;25.53;;;17.80;;
39300;SDS011;25019;42.626;23.380;2022-10-22T07:58:07;27.57;;;18.73;;
39300;SDS011;25019;42.626;23.380;2022-10-22T08:00:32;24.77;;;17.77;;
39300;SDS011;25019;42.626;23.380;2022-10-22T08:02:58;24.83;;;17.53;;
39300;SDS011;25019;42.626;23.380;2022-10-22T08:05:24;26.43;;;17.40;;
39300;SDS011;25019;42.626;23.380;2022-10-22T08:07:50;26.10;;;16.87;;
39300;SDS011;25019;42.626;23.380;2022-10-22T08:10:16;27.03;;;17.37;;
39300;SDS011;25019;42.626;23.380;2022-10-22T08:12:41;22.93;;;15.90;;
39300;SDS011;25019;42.626;23.380;2022-10-22T08:15:07;25.53;;;17.40;;
39300;SDS011;25019;42.626;23.380;2022-10-22T08:17:33;27.97;;;17.40;;
39300;SDS011;25019;42.626;23.380;2022-10-22T08:19:59;25.47;;;17.70;;
39300;SDS011;25019;42.626;23.380;2022-10-22T08:22:25;26.80;;;17.47;;
39300;SDS011;25019;42.626;23.380;2022-10-22T08:24:50;26.70;;;17.13;;
39300;SDS011;25019;42.626;23.380;2022-10-22T08:27:17;27.77;;;16.73;;
39300;SDS011;25019;42.626;23.380;2022-10-22T08:29:43;26.40;;;18.70;;
39300;SDS011;25019;42.626;23.380;2022-10-22T08:32:08;27.23;;;18.73;;
39300;SDS011;25019;42.626;23.380;2022-10-22T08:34:34;28.53;;;19.83;;
39300;SDS011;25019;42.626;23.380;2022-10-22T08:37:00;26.77;;;17.57;;
39300;SDS011;25019;42.626;23.380;2022-10-22T08:39:26;27.23;;;17.83;;
39300;SDS011;25019;42.626;23.380;2022-10-22T08:49:41;29.00;;;18.97;;
39300;SDS011;25019;42.626;23.380;2022-10-22T08:52:11;24.57;;;16.53;;
39300;SDS011;25019;42.626;23.380;2022-10-22T09:05:38;25.87;;;16.63;;
39300;SDS011;25019;42.626;23.380;2022-10-22T09:08:09;27.83;;;18.97;;
39300;SDS011;25019;42.626;23.380;2022-10-22T09:10:37;24.33;;;16.00;;
39300;SDS011;25019;42.626;23.380;2022-10-22T09:13:11;23.07;;;15.87;;
39300;SDS011;25019;42.626;23.380;2022-10-22T09:15:40;19.83;;;14.30;;
39300;SDS011;25019;42.626;23.380;2022-10-22T09:18:11;21.67;;;16.00;;
39300;SDS011;25019;42.626;23.380;2022-10-22T09:26:14;20.53;;;15.37;;
39300;SDS011;25019;42.626;23.380;2022-10-22T09:28:41;22.23;;;15.60;;
39300;SDS011;25019;42.626;23.380;2022-10-22T09:31:11;19.73;;;15.23;;
39300;SDS011;25019;42.626;23.380;2022-10-22T09:33:39;23.43;;;15.33;;
39300;SDS011;25019;42.626;23.380;2022-10-22T09:36:05;21.30;;;15.37;;
39300;SDS011;25019;42.626;23.380;2022-10-22T09:38:41;25.40;;;15.07;;
39300;SDS011;25019;42.626;23.380;2022-10-22T09:41:10;23.10;;;15.73;;
39300;SDS011;25019;42.626;23.380;2022-10-22T09:43:36;22.90;;;15.00;;
39300;SDS011;25019;42.626;23.380;2022-10-22T09:46:05;20.30;;;14.30;;
39300;SDS011;25019;42.626;23.380;2022-10-22T09:48:33;21.20;;;14.87;;
39300;SDS011;25019;42.626;23.380;2022-10-22T09:51:14;23.07;;;15.17;;
39300;SDS011;25019;42.626;23.380;2022-10-22T09:53:45;36.47;;;26.70;;
39300;SDS011;25019;42.626;23.380;2022-10-22T09:58:50;22.37;;;14.23;;
39300;SDS011;25019;42.626;23.380;2022-10-22T10:01:21;23.27;;;14.40;;
39300;SDS011;25019;42.626;23.380;2022-10-22T10:03:50;21.03;;;13.77;;
39300;SDS011;25019;42.626;23.380;2022-10-22T10:06:17;23.73;;;15.73;;
39300;SDS011;25019;42.626;23.380;2022-10-22T10:08:44;18.50;;;13.07;;
39300;SDS011;25019;42.626;23.380;2022-10-22T10:11:15;18.53;;;12.77;;
39300;SDS011;25019;42.626;23.380;2022-10-22T10:16:38;17.27;;;12.70;;
39300;SDS011;25019;42.626;23.380;2022-10-22T10:27:30;19.67;;;13.17;;
39300;SDS011;25019;42.626;23.380;2022-10-22T10:35:31;15.63;;;12.27;;
39300;SDS011;25019;42.626;23.380;2022-10-22T10:52:00;23.47;;;15.90;;
39300;SDS011;25019;42.626;23.380;2022-10-22T10:55:02;17.03;;;12.30;;
39300;SDS011;25019;42.626;23.380;2022-10-22T11:00:55;15.73;;;12.70;;
39300;SDS011;25019;42.626;23.380;2022-10-22T11:05:53;15.90;;;11.47;;
39300;SDS011;25019;42.626;23.380;2022-10-22T11:10:58;17.80;;;11.40;;
39300;SDS011;25019;42.626;23.380;2022-10-22T11:13:32;44.30;;;30.73;;
39300;SDS011;25019;42.626;23.380;2022-10-22T11:16:20;65.47;;;42.23;;
39300;SDS011;25019;42.626;23.380;2022-10-22T11:19:02;14.37;;;10.60;;
39300;SDS011;25019;42.626;23.380;2022-10-22T11:29:06;18.13;;;13.73;;
39300;SDS011;25019;42.626;23.380;2022-10-22T11:31:37;13.87;;;9.37;;
39300;SDS011;25019;42.626;23.380;2022-10-22T11:34:09;16.63;;;10.13;;
39300;SDS011;25019;42.626;23.380;2022-10-22T11:36:42;33.97;;;24.83;;
39300;SDS011;25019;42.626;23.380;2022-10-22T11:39:26;11.33;;;9.33;;
39300;SDS011;25019;42.626;23.380;2022-10-22T11:41:53;13.67;;;9.27;;
39300;SDS011;25019;42.626;23.380;2022-10-22T11:44:22;12.37;;;9.17;;
39300;SDS011;25019;42.626;23.380;2022-10-22T11:49:27;13.70;;;10.20;;
39300;SDS011;25019;42.626;23.380;2022-10-22T11:54:55;12.47;;;9.40;;
39300;SDS011;25019;42.626;23.380;2022-10-22T12:03:17;14.80;;;8.80;;
39300;SDS011;25019;42.626;23.380;2022-10-22T12:06:01;11.70;;;8.77;;
39300;SDS011;25019;42.626;23.380;2022-10-22T12:08:50;13.70;;;8.83;;
39300;SDS011;25019;42.626;23.380;2022-10-22T12:17:15;12.40;;;10.27;;
39300;SDS011;25019;42.626;23.380;2022-10-22T12:22:12;16.87;;;10.47;;
39300;SDS011;25019;42.626;23.380;2022-10-22T12:24:43;13.83;;;8.47;;
39300;SDS011;25019;42.626;23.380;2022-10-22T12:27:18;9.97;;;7.83;;
39300;SDS011;25019;42.626;23.380;2022-10-22T12:29:53;10.53;;;7.80;;
39300;SDS011;25019;42.626;23.380;2022-10-22T12:32:20;15.93;;;10.20;;
39300;SDS011;25019;42.626;23.380;2022-10-22T12:34:46;10.67;;;7.97;;
39300;SDS011;25019;42.626;23.380;2022-10-22T12:37:14;10.60;;;8.23;;
39300;SDS011;25019;42.626;23.380;2022-10-22T12:39:41;14.83;;;9.07;;
39300;SDS011;25019;42.626;23.380;2022-10-22T12:42:12;12.23;;;9.37;;
39300;SDS011;25019;42.626;23.380;2022-10-22T12:44:39;9.67;;;7.80;;
39300;SDS011;25019;42.626;23.380;2022-10-22T12:47:05;11.37;;;9.93;;
39300;SDS011;25019;42.626;23.380;2022-10-22T12:49:38;12.77;;;7.80;;
39300;SDS011;25019;42.626;23.380;2022-10-22T12:52:06;46.00;;;36.23;;
39300;SDS011;25019;42.626;23.380;2022-10-22T12:54:39;12.00;;;7.87;;
39300;SDS011;25019;42.626;23.380;2022-10-22T12:57:05;10.30;;;7.47;;
39300;SDS011;25019;42.626;23.380;2022-10-22T12:59:37;8.67;;;7.30;;
39300;SDS011;25019;42.626;23.380;2022-10-22T13:07:39;13.43;;;11.87;;
39300;SDS011;25019;42.626;23.380;2022-10-22T13:10:18;10.57;;;8.33;;
39300;SDS011;25019;42.626;23.380;2022-10-22T13:12:50;9.53;;;7.33;;
39300;SDS011;25019;42.626;23.380;2022-10-22T13:15:20;11.90;;;7.80;;
39300;SDS011;25019;42.626;23.380;2022-10-22T13:20:50;9.67;;;8.10;;
39300;SDS011;25019;42.626;23.380;2022-10-22T13:23:28;16.47;;;13.37;;
39300;SDS011;25019;42.626;23.380;2022-10-22T13:26:16;9.20;;;7.63;;
39300;SDS011;25019;42.626;23.380;2022-10-22T13:28:48;11.07;;;7.70;;
39300;SDS011;25019;42.626;23.380;2022-10-22T13:31:23;10.73;;;7.97;;
39300;SDS011;25019;42.626;23.380;2022-10-22T13:33:51;10.37;;;7.83;;
39300;SDS011;25019;42.626;23.380;2022-10-22T13:36:19;9.67;;;7.47;;
39300;SDS011;25019;42.626;23.380;2022-10-22T13:38:46;9.53;;;7.73;;
39300;SDS011;25019;42.626;23.380;2022-10-22T13:41:30;10.37;;;7.83;;
39300;SDS011;25019;42.626;23.380;2022-10-22T13:43:58;16.33;;;8.03;;
39300;SDS011;25019;42.626;23.380;2022-10-22T13:46:24;9.77;;;7.67;;
39300;SDS011;25019;42.626;23.380;2022-10-22T13:48:52;9.27;;;7.57;;
39300;SDS011;25019;42.626;23.380;2022-10-22T13:51:21;11.80;;;7.70;;
39300;SDS011;25019;42.626;23.380;2022-10-22T13:53:55;8.93;;;7.43;;
39300;SDS011;25019;42.626;23.380;2022-10-22T13:56:21;11.27;;;7.37;;
39300;SDS011;25019;42.626;23.380;2022-10-22T13:58:48;13.17;;;10.23;;
39300;SDS011;25019;42.626;23.380;2022-10-22T14:01:26;12.53;;;9.87;;
39300;SDS011;25019;42.626;23.380;2022-10-22T14:03:53;10.07;;;8.03;;
39300;SDS011;25019;42.626;23.380;2022-10-22T14:06:26;12.67;;;7.97;;
39300;SDS011;25019;42.626;23.380;2022-10-22T14:08:56;10.13;;;7.27;;
39300;SDS011;25019;42.626;23.380;2022-10-22T14:11:24;8.37;;;7.20;;
39300;SDS011;25019;42.626;23.380;2022-10-22T14:13:51;8.43;;;7.07;;
39300;SDS011;25019;42.626;23.380;2022-10-22T14:16:18;13.10;;;7.47;;
39300;SDS011;25019;42.626;23.380;2022-10-22T14:18:47;12.60;;;7.87;;
39300;SDS011;25019;42.626;23.380;2022-10-22T14:21:13;9.43;;;7.40;;
39300;SDS011;25019;42.626;23.380;2022-10-22T14:23:41;8.67;;;7.33;;
39300;SDS011;25019;42.626;23.380;2022-10-22T14:26:22;9.37;;;7.33;;
39300;SDS011;25019;42.626;23.380;2022-10-22T14:28:52;9.73;;;7.23;;
39300;SDS011;25019;42.626;23.380;2022-10-22T14:31:18;8.30;;;6.60;;
39300;SDS011;25019;42.626;23.380;2022-10-22T14:33:44;7.50;;;6.70;;
39300;SDS011;25019;42.626;23.380;2022-10-22T14:36:13;9.90;;;7.13;;
39300;SDS011;25019;42.626;23.380;2022-10-22T14:38:42;12.17;;;7.57;;
39300;SDS011;25019;42.626;23.380;2022-10-22T14:41:14;12.10;;;8.23;;
39300;SDS011;25019;42.626;23.380;2022-10-22T14:43:41;12.90;;;8.07;;
39300;SDS011;25019;42.626;23.380;2022-10-22T14:46:07;11.97;;;7.70;;
39300;SDS011;25019;42.626;23.380;2022-10-22T14:48:39;9.63;;;7.07;;
39300;SDS011;25019;42.626;23.380;2022-10-22T14:51:04;11.77;;;7.73;;
39300;SDS011;25019;42.626;23.380;2022-10-22T14:53:30;10.70;;;7.50;;
39300;SDS011;25019;42.626;23.380;2022-10-22T14:55:56;10.93;;;7.20;;
39300;SDS011;25019;42.626;23.380;2022-10-22T14:58:24;12.63;;;8.00;;
39300;SDS011;25019;42.626;23.380;2022-10-22T15:00:50;11.10;;;8.57;;
39300;SDS011;25019;42.626;23.380;2022-10-22T15:03:16;14.37;;;9.10;;
39300;SDS011;25019;42.626;23.380;2022-10-22T15:05:42;14.00;;;8.27;;
39300;SDS011;25019;42.626;23.380;2022-10-22T15:08:11;14.97;;;9.97;;
39300;SDS011;25019;42.626;23.380;2022-10-22T15:10:38;13.67;;;8.63;;
39300;SDS011;25019;42.626;23.380;2022-10-22T15:13:04;22.33;;;9.63;;
39300;SDS011;25019;42.626;23.380;2022-10-22T15:15:30;23.23;;;12.30;;
39300;SDS011;25019;42.626;23.380;2022-10-22T15:17:56;18.27;;;11.30;;
39300;SDS011;25019;42.626;23.380;2022-10-22T15:20:21;23.60;;;10.97;;
39300;SDS011;25019;42.626;23.380;2022-10-22T15:22:47;16.27;;;11.73;;
39300;SDS011;25019;42.626;23.380;2022-10-22T15:25:12;16.20;;;11.93;;
39300;SDS011;25019;42.626;23.380;2022-10-22T15:27:38;18.93;;;13.30;;
39300;SDS011;25019;42.626;23.380;2022-10-22T15:30:04;20.13;;;11.33;;
39300;SDS011;25019;42.626;23.380;2022-10-22T15:32:32;18.27;;;10.53;;
39300;SDS011;25019;42.626;23.380;2022-10-22T15:34:58;15.93;;;11.27;;
39300;SDS011;25019;42.626;23.380;2022-10-22T15:37:25;17.37;;;10.67;;
39300;SDS011;25019;42.626;23.380;2022-10-22T15:39:51;14.67;;;10.67;;
39300;SDS011;25019;42.626;23.380;2022-10-22T15:42:17;19.00;;;10.73;;
39300;SDS011;25019;42.626;23.380;2022-10-22T15:44:47;20.97;;;10.40;;
39300;SDS011;25019;42.626;23.380;2022-10-22T15:47:12;16.73;;;11.47;;
39300;SDS011;25019;42.626;23.380;2022-10-22T15:49:38;17.47;;;10.30;;
39300;SDS011;25019;42.626;23.380;2022-10-22T15:52:06;22.13;;;10.87;;
39300;SDS011;25019;42.626;23.380;2022-10-22T15:54:33;13.83;;;9.60;;
39300;SDS011;25019;42.626;23.380;2022-10-22T15:56:59;17.23;;;10.47;;
39300;SDS011;25019;42.626;23.380;2022-10-22T15:59:33;16.90;;;11.33;;
39300;SDS011;25019;42.626;23.380;2022-10-22T16:01:59;18.00;;;11.40;;
39300;SDS011;25019;42.626;23.380;2022-10-22T16:04:25;16.40;;;11.53;;
39300;SDS011;25019;42.626;23.380;2022-10-22T16:06:51;21.47;;;11.37;;
39300;SDS011;25019;42.626;23.380;2022-10-22T16:09:21;20.23;;;11.50;;
39300;SDS011;25019;42.626;23.380;2022-10-22T16:11:49;18.23;;;11.63;;
39300;SDS011;25019;42.626;23.380;2022-10-22T16:14:16;18.50;;;12.23;;
39300;SDS011;25019;42.626;23.380;2022-10-22T16:16:48;22.37;;;14.57;;
39300;SDS011;25019;42.626;23.380;2022-10-22T16:19:17;18.73;;;12.43;;
39300;SDS011;25019;42.626;23.380;2022-10-22T16:21:44;22.30;;;13.30;;
39300;SDS011;25019;42.626;23.380;2022-10-22T16:24:10;23.10;;;13.10;;
39300;SDS011;25019;42.626;23.380;2022-10-22T16:26:37;20.80;;;12.40;;
39300;SDS011;25019;42.626;23.380;2022-10-22T16:29:03;19.07;;;12.37;;
39300;SDS011;25019;42.626;23.380;2022-10-22T16:31:29;20.33;;;12.37;;
39300;SDS011;25019;42.626;23.380;2022-10-22T16:33:56;18.23;;;11.93;;